Time;durP1;ratioP1;P1;durP2;ratioP2;P2;SDS_P1;SDS_P2;PMS_P1;PMS_P2;Temp;Humidity;BMP_temperature;BMP_pressure;BME280_temperature;BME280_humidity;BME280_pressure;Samples;Min_cycle;Max_cycle;Signal;HPM_P1;HPM_P2
2023/06/15 00:01:17;;;;;;;4.20;2.58;;;;;;;16.93;100.00;101816.25;5032778;28;20532;-57
2023/06/15 00:03:43;;;;;;;3.90;2.60;;;;;;;17.14;100.00;101852.56;5017270;28;20121;-55
2023/06/15 00:06:08;;;;;;;5.85;2.90;;;;;;;16.87;100.00;101822.69;5013582;28;20465;-56
2023/06/15 00:08:34;;;;;;;2.40;2.20;;;;;;;16.74;100.00;101799.38;5015465;28;20042;-56
2023/06/15 00:11:00;;;;;;;2.65;2.35;;;;;;;17.16;100.00;101882.63;5015966;28;20037;-55
2023/06/15 00:13:25;;;;;;;4.57;2.80;;;;;;;17.03;100.00;101870.78;5034898;28;20041;-57
2023/06/15 00:15:50;;;;;;;2.90;2.60;;;;;;;16.81;100.00;101833.59;5034327;28;20030;-54
2023/06/15 00:18:17;;;;;;;4.32;2.63;;;;;;;16.78;100.00;101828.41;5016819;28;20073;-55
2023/06/15 00:20:44;;;;;;;2.97;2.60;;;;;;;17.17;100.00;101896.78;5035074;28;20037;-57
2023/06/15 00:23:09;;;;;;;3.58;2.30;;;;;;;17.16;100.00;101897.75;5034905;28;20088;-56
2023/06/15 00:25:37;;;;;;;4.22;2.72;;;;;;;17.10;100.00;101896.22;5033439;28;20068;-55
2023/06/15 00:28:03;;;;;;;3.28;2.80;;;;;;;17.00;100.00;101886.88;5005463;28;20060;-55
2023/06/15 00:30:29;;;;;;;4.10;2.53;;;;;;;16.88;100.00;101876.75;5014851;28;20042;-58
2023/06/15 00:32:54;;;;;;;3.55;3.13;;;;;;;16.93;100.00;101892.53;5014974;28;20083;-55
2023/06/15 00:35:21;;;;;;;3.55;3.03;;;;;;;16.90;100.00;101888.19;5014972;28;20183;-57
2023/06/15 00:37:46;;;;;;;3.35;2.83;;;;;;;16.78;100.00;101884.25;5015034;28;20036;-55
2023/06/15 00:40:12;;;;;;;5.20;3.17;;;;;;;16.71;100.00;101874.81;5014830;28;20038;-55
2023/06/15 00:42:37;;;;;;;6.68;3.20;;;;;;;16.89;100.00;101889.13;5014545;28;20389;-54
2023/06/15 00:45:04;;;;;;;3.53;2.58;;;;;;;16.86;100.00;101887.47;5013685;28;20374;-55
2023/06/15 00:47:30;;;;;;;4.22;3.25;;;;;;;16.42;100.00;101805.13;5014508;28;20036;-56
2023/06/15 00:49:57;;;;;;;4.45;2.90;;;;;;;16.89;100.00;101881.16;5014695;28;20041;-56
2023/06/15 00:52:22;;;;;;;3.75;3.10;;;;;;;16.50;100.00;101813.63;5014467;28;20084;-57
2023/06/15 00:54:48;;;;;;;3.83;3.53;;;;;;;16.79;100.00;101864.72;4996968;28;20046;-57
2023/06/15 00:57:14;;;;;;;3.58;3.28;;;;;;;16.51;100.00;101818.03;5013949;28;20038;-55
2023/06/15 00:59:40;;;;;;;5.15;3.40;;;;;;;16.86;100.00;101875.97;5013512;28;20041;-54
2023/06/15 01:02:12;;;;;;;4.80;3.60;;;;;;;16.83;100.00;101879.63;5011564;28;20042;-56
2023/06/15 01:04:37;;;;;;;5.50;3.50;;;;;;;16.51;100.00;101808.28;5014445;28;20092;-55
2023/06/15 01:07:04;;;;;;;9.90;3.13;;;;;;;16.90;100.00;101876.69;5014402;28;20452;-58
2023/06/15 01:09:31;;;;;;;5.18;3.65;;;;;;;16.86;100.00;101879.50;5014183;28;20038;-55
2023/06/15 01:11:58;;;;;;;4.28;3.38;;;;;;;16.90;100.00;101879.38;5013911;28;20041;-57
2023/06/15 01:14:26;;;;;;;4.95;3.55;;;;;;;16.91;100.00;101879.28;5014155;28;20095;-57
2023/06/15 01:16:53;;;;;;;3.65;3.10;;;;;;;16.56;100.00;101808.09;4996510;28;20037;-56
2023/06/15 01:19:37;;;;;;;5.47;3.70;;;;;;;16.90;100.00;101874.03;4995212;28;20386;-56
2023/06/15 01:22:15;;;;;;;5.68;4.15;;;;;;;16.64;100.00;101843.19;5013765;28;20029;-56
2023/06/15 01:24:45;;;;;;;4.35;3.95;;;;;;;16.82;100.00;101863.72;5013852;28;20026;-56
2023/06/15 01:27:11;;;;;;;5.90;3.45;;;;;;;16.80;100.00;101871.75;5015054;28;20057;-56
2023/06/15 01:29:36;;;;;;;4.20;3.50;;;;;;;16.79;100.00;101869.16;5033698;28;20042;-55
2023/06/15 01:32:03;;;;;;;4.05;3.65;;;;;;;16.35;100.00;101796.53;5033552;28;20040;-56
2023/06/15 01:34:30;;;;;;;4.38;3.88;;;;;;;16.38;100.00;101795.53;5014746;28;20040;-55
2023/06/15 01:36:56;;;;;;;5.43;4.18;;;;;;;16.61;100.00;101853.97;5033293;28;20416;-56
2023/06/15 01:39:21;;;;;;;6.18;3.72;;;;;;;16.70;100.00;101850.94;5015493;28;20041;-54
2023/06/15 01:41:46;;;;;;;4.68;3.60;;;;;;;16.37;100.00;101789.38;5033169;28;20036;-55
2023/06/15 01:44:12;;;;;;;4.22;3.70;;;;;;;16.76;100.00;101866.63;5033292;28;20036;-56
2023/06/15 01:46:37;;;;;;;4.32;3.67;;;;;;;16.74;100.00;101864.03;5015664;28;20057;-56
2023/06/15 01:49:03;;;;;;;5.70;4.00;;;;;;;16.72;100.00;101860.56;5033427;28;20061;-56
2023/06/15 01:51:30;;;;;;;7.15;3.78;;;;;;;16.28;100.00;101787.09;5014208;28;20041;-56
2023/06/15 01:53:55;;;;;;;7.45;3.72;;;;;;;16.62;100.00;101858.34;5015407;28;20073;-57
2023/06/15 01:56:21;;;;;;;5.30;4.18;;;;;;;16.65;100.00;101861.75;5014666;28;20433;-56
2023/06/15 01:58:46;;;;;;;6.22;3.92;;;;;;;16.61;100.00;101845.97;5033171;28;20448;-56
2023/06/15 02:01:11;;;;;;;6.15;4.32;;;;;;;16.34;100.00;101818.75;5033191;28;20040;-56
2023/06/15 02:03:37;;;;;;;7.32;4.20;;;;;;;16.59;100.00;101864.66;5032722;28;20109;-55
2023/06/15 02:06:02;;;;;;;4.78;4.38;;;;;;;16.49;100.00;101852.63;5032867;28;20030;-56
2023/06/15 02:08:28;;;;;;;7.15;4.90;;;;;;;16.47;100.00;101857.16;5014133;28;20147;-56
2023/06/15 02:10:53;;;;;;;7.60;4.82;;;;;;;16.47;100.00;101875.75;5031336;28;20042;-55
2023/06/15 02:13:18;;;;;;;6.95;5.03;;;;;;;16.42;100.00;101867.13;5032671;28;20388;-55
2023/06/15 02:15:43;;;;;;;4.68;4.28;;;;;;;16.02;100.00;101812.06;5015252;28;20494;-57
2023/06/15 02:18:14;;;;;;;5.10;4.40;;;;;;;16.30;100.00;101871.13;5032667;28;20473;-56
2023/06/15 02:20:40;;;;;;;5.13;4.20;;;;;;;15.86;100.00;101799.44;5032610;28;20079;-55
2023/06/15 02:23:06;;;;;;;5.75;4.40;;;;;;;16.07;100.00;101857.03;5032426;28;20820;-55
2023/06/15 02:25:31;;;;;;;5.32;4.82;;;;;;;16.07;100.00;101867.66;5013880;28;20033;-56
2023/06/15 02:27:59;;;;;;;6.32;4.95;;;;;;;16.03;100.00;101864.22;5031227;28;20045;-56
2023/06/15 02:30:25;;;;;;;5.75;4.85;;;;;;;15.97;100.00;101864.47;5032516;28;20037;-57
2023/06/15 02:32:52;;;;;;;6.15;5.50;;;;;;;15.44;100.00;101784.19;5032524;28;20484;-56
2023/06/15 02:35:18;;;;;;;6.95;5.03;;;;;;;15.55;100.00;101805.06;5032407;28;20111;-55
2023/06/15 02:37:43;;;;;;;7.07;4.95;;;;;;;15.48;100.00;101804.41;5032538;28;20068;-54
2023/06/15 02:40:09;;;;;;;6.25;4.78;;;;;;;15.61;100.00;101828.72;5031724;28;20099;-55
2023/06/15 02:42:35;;;;;;;9.43;5.05;;;;;;;15.73;100.00;101852.97;5010597;28;20034;-56
2023/06/15 02:45:02;;;;;;;8.00;5.22;;;;;;;15.60;100.00;101843.78;5012697;28;20466;-55
2023/06/15 02:47:31;;;;;;;9.52;5.43;;;;;;;15.73;100.00;101868.91;4995094;28;20034;-55
2023/06/15 02:49:59;;;;;;;6.70;4.93;;;;;;;15.74;100.00;101864.47;5012649;28;20038;-56
2023/06/15 02:52:27;;;;;;;8.25;5.28;;;;;;;15.25;100.00;101793.75;5012644;28;20066;-58
2023/06/15 02:54:52;;;;;;;6.32;5.00;;;;;;;15.55;100.00;101852.81;5012770;28;20120;-57
2023/06/15 02:57:18;;;;;;;7.93;5.65;;;;;;;15.63;100.00;101872.84;5012159;28;20125;-53
2023/06/15 02:59:44;;;;;;;7.75;5.55;;;;;;;15.62;100.00;101871.09;5008307;28;20092;-58
2023/06/15 03:02:10;;;;;;;6.43;5.43;;;;;;;15.52;100.00;101864.41;5012181;28;20461;-57
2023/06/15 03:04:44;;;;;;;6.82;5.97;;;;;;;15.59;100.00;101880.97;5012350;28;20042;-56
2023/06/15 03:07:16;;;;;;;9.57;5.75;;;;;;;15.57;100.00;101867.75;5011981;28;20417;-55
2023/06/15 03:09:49;;;;;;;6.13;5.53;;;;;;;15.53;100.00;101870.56;5012483;28;20026;-56
2023/06/15 03:12:15;;;;;;;10.00;5.70;;;;;;;15.10;100.00;101808.44;5012587;28;20037;-57
2023/06/15 03:14:44;;;;;;;6.13;5.53;;;;;;;15.04;100.00;101803.34;5013649;28;20378;-57
2023/06/15 03:17:10;;;;;;;6.75;5.35;;;;;;;15.44;100.00;101878.84;5032120;28;20029;-56
2023/06/15 03:19:36;;;;;;;8.40;5.30;;;;;;;15.39;100.00;101873.69;5031940;28;20041;-56
2023/06/15 03:22:01;;;;;;;6.97;5.78;;;;;;;14.89;100.00;101793.28;5032301;28;20136;-57
2023/06/15 03:24:27;;;;;;;8.00;5.90;;;;;;;15.26;100.00;101860.94;5014255;28;20503;-57
2023/06/15 03:26:56;;;;;;;6.80;6.10;;;;;;;15.32;100.00;101880.16;5013271;28;20048;-57
2023/06/15 03:29:26;;;;;;;6.47;5.88;;;;;;;15.33;100.00;101881.00;5031086;28;20056;-56
2023/06/15 03:31:52;;;;;;;7.45;6.20;;;;;;;15.29;100.00;101869.66;5030549;28;20401;-56
2023/06/15 03:34:17;;;;;;;7.28;6.57;;;;;;;15.28;100.00;101872.34;5031687;28;20033;-57
2023/06/15 03:36:43;;;;;;;7.07;6.15;;;;;;;14.87;100.00;101811.03;5031802;28;20190;-56
2023/06/15 03:39:09;;;;;;;8.30;6.30;;;;;;;15.23;100.00;101876.00;5014294;28;20041;-54
2023/06/15 03:41:37;;;;;;;7.05;6.38;;;;;;;14.68;100.00;101783.44;5031579;28;20041;-53
2023/06/15 03:44:03;;;;;;;7.03;6.40;;;;;;;15.26;100.00;101882.16;5014318;28;20403;-56
2023/06/15 03:46:28;;;;;;;8.35;6.93;;;;;;;14.91;100.00;101825.06;5030581;28;20034;-55
2023/06/15 03:48:53;;;;;;;7.70;7.00;;;;;;;14.83;100.00;101808.53;5030429;28;20050;-56
2023/06/15 03:51:18;;;;;;;8.02;7.22;;;;;;;15.23;100.00;101878.66;5031849;28;20060;-56
2023/06/15 03:53:44;;;;;;;7.97;7.15;;;;;;;15.23;100.00;101882.25;5035592;28;20473;-56
2023/06/15 03:56:10;;;;;;;10.10;6.63;;;;;;;14.99;100.00;101841.56;5034492;28;20068;-56
2023/06/15 03:58:35;;;;;;;7.47;6.68;;;;;;;14.97;100.00;101841.59;5035463;28;20037;-56
2023/06/15 04:01:01;;;;;;;7.90;7.18;;;;;;;15.24;100.00;101882.19;5013862;28;20485;-55
2023/06/15 04:03:26;;;;;;;9.35;7.10;;;;;;;14.88;100.00;101820.72;5034852;28;20037;-58
2023/06/15 04:05:52;;;;;;;8.75;7.40;;;;;;;14.88;100.00;101830.47;5035240;28;20044;-56
2023/06/15 04:08:18;;;;;;;19.08;8.90;;;;;;;15.23;100.00;101886.63;5017296;28;20037;-56
2023/06/15 04:10:44;;;;;;;8.60;7.80;;;;;;;15.27;100.00;101887.41;5034991;28;20087;-56
2023/06/15 04:13:09;;;;;;;8.07;7.28;;;;;;;15.34;100.00;101894.22;5015155;28;20056;-57
2023/06/15 04:15:34;;;;;;;8.00;7.28;;;;;;;15.36;100.00;101884.41;5033872;28;20034;-54
2023/06/15 04:18:00;;;;;;;9.35;7.90;;;;;;;15.22;100.00;101870.78;5032160;28;20065;-56
2023/06/15 04:20:28;;;;;;;10.25;7.28;;;;;;;15.39;100.00;101894.06;5025713;28;20124;-56
2023/06/15 04:22:54;;;;;;;9.70;7.75;;;;;;;15.44;100.00;101900.91;5034237;28;20033;-56
2023/06/15 04:25:19;;;;;;;7.40;6.60;;;;;;;15.47;100.00;101895.53;5033232;28;20045;-57
2023/06/15 04:27:46;;;;;;;8.10;6.63;;;;;;;15.50;100.00;101891.94;5033162;28;20068;-56
2023/06/15 04:30:16;;;;;;;10.02;7.07;;;;;;;15.42;100.00;101873.59;5033799;28;20029;-54
2023/06/15 04:32:42;;;;;;;8.18;6.13;;;;;;;15.56;100.00;101900.53;5034669;28;20037;-56
2023/06/15 04:35:07;;;;;;;9.32;6.97;;;;;;;15.17;100.00;101831.19;5031899;28;20108;-56
2023/06/15 04:37:33;;;;;;;7.43;6.72;;;;;;;15.63;100.00;101902.03;5034050;28;20046;-55
2023/06/15 04:39:59;;;;;;;7.43;6.50;;;;;;;15.51;100.00;101878.59;5034883;28;20121;-56
2023/06/15 04:42:25;;;;;;;8.82;5.90;;;;;;;15.71;100.00;101907.06;5034657;28;20034;-56
2023/06/15 04:44:50;;;;;;;9.93;6.10;;;;;;;15.69;100.00;101887.69;5033023;28;20407;-56
2023/06/15 04:47:16;;;;;;;7.03;6.40;;;;;;;15.60;100.00;101867.66;5033175;28;20799;-55
2023/06/15 04:49:42;;;;;;;8.45;6.50;;;;;;;15.88;100.00;101909.94;5034453;28;20544;-55
2023/06/15 04:52:09;;;;;;;6.93;6.28;;;;;;;15.45;100.00;101823.06;5033037;28;20191;-56
2023/06/15 04:54:34;;;;;;;9.32;6.82;;;;;;;15.45;100.00;101820.41;5032072;28;20033;-56
2023/06/15 04:57:00;;;;;;;7.13;6.32;;;;;;;16.05;100.00;101920.81;5033376;28;20038;-56
2023/06/15 04:59:25;;;;;;;6.45;5.85;;;;;;;15.81;100.00;101867.78;5034180;28;20042;-57
2023/06/15 05:01:50;;;;;;;12.20;6.50;;;;;;;15.75;100.00;101856.47;5029460;28;20488;-55
2023/06/15 05:04:16;;;;;;;7.57;5.95;;;;;;;16.26;100.00;101920.00;5033321;28;20033;-55
2023/06/15 05:06:42;;;;;;;7.82;6.50;;;;;;;16.06;100.00;101895.13;5032069;28;20045;-55
2023/06/15 05:09:07;;;;;;;6.53;5.72;;;;;;;16.16;100.00;101897.38;5016226;28;20030;-55
2023/06/15 05:11:32;;;;;;;8.82;6.18;;;;;;;15.95;100.00;101849.53;5032965;28;20055;-55
2023/06/15 05:13:58;;;;;;;8.73;5.85;;;;;;;16.51;100.00;101934.97;5033747;28;20032;-56
2023/06/15 05:16:23;;;;;;;7.93;6.25;;;;;;;16.25;100.00;101880.22;5031526;28;20073;-55
2023/06/15 05:18:50;;;;;;;6.63;5.88;;;;;;;16.16;100.00;101838.06;5031891;28;20393;-57
2023/06/15 05:21:15;;;;;;;10.60;6.53;;;;;;;16.65;100.00;101914.94;5033031;28;20171;-57
2023/06/15 05:23:42;;;;;;;6.53;5.85;;;;;;;16.79;100.00;101920.53;5033767;28;20067;-56
2023/06/15 05:26:07;;;;;;;8.00;6.55;;;;;;;16.57;100.00;101868.31;5032408;28;20037;-56
2023/06/15 05:28:32;;;;;;;8.55;5.75;;;;;;;17.03;100.00;101910.69;5045798;28;20049;-55
2023/06/15 05:31:00;;;;;;;8.00;6.13;;;;;;;17.14;100.00;101902.25;5050922;28;20079;-56
2023/06/15 05:33:25;;;;;;;6.93;5.85;;;;;;;16.88;100.00;101842.19;5053661;28;20499;-56
2023/06/15 05:35:51;;;;;;;9.48;6.68;;;;;;;17.45;100.00;101929.28;5048458;28;20025;-55
2023/06/15 05:38:16;;;;;;;8.57;6.00;;;;;;;17.55;100.00;101929.75;5013749;28;20045;-56
2023/06/15 05:40:41;;;;;;;7.45;5.70;;;;;;;17.72;100.00;101940.53;5013725;28;20042;-56
2023/06/15 05:43:07;;;;;;;7.55;5.70;;;;;;;17.25;100.00;101852.13;5050452;28;20041;-57
2023/06/15 05:45:32;;;;;;;9.48;6.25;;;;;;;17.84;100.00;101935.50;5053084;28;20048;-55
2023/06/15 05:47:57;;;;;;;6.90;5.63;;;;;;;17.92;100.00;101936.03;5053261;28;20029;-56
2023/06/15 05:50:23;;;;;;;7.15;5.88;;;;;;;17.50;100.00;101851.88;5046494;28;20172;-56
2023/06/15 05:52:48;;;;;;;9.60;6.03;;;;;;;18.17;100.00;101935.78;5026955;28;20133;-57
2023/06/15 05:55:13;;;;;;;10.82;6.35;;;;;;;18.16;100.00;101906.53;5011782;28;20038;-55
2023/06/15 05:57:38;;;;;;;8.02;6.05;;;;;;;18.42;100.00;101944.34;5011435;28;20030;-56
2023/06/15 06:00:05;;;;;;;10.68;5.88;;;;;;;18.41;100.00;101937.31;5048296;28;20175;-56
2023/06/15 06:02:30;;;;;;;6.57;5.72;;;;;;;18.70;100.00;101951.06;5014323;28;20037;-58
2023/06/15 06:04:56;;;;;;;7.60;5.55;;;;;;;18.81;100.00;101954.06;5031015;28;20120;-59
2023/06/15 06:07:21;;;;;;;10.35;5.63;;;;;;;18.70;100.00;101898.59;5040216;28;20389;-55
2023/06/15 06:09:47;;;;;;;5.75;5.25;;;;;;;19.07;100.00;101929.63;5027798;28;20393;-51
2023/06/15 06:12:13;;;;;;;6.75;5.30;;;;;;;19.25;100.00;101957.19;5029168;28;20037;-50
2023/06/15 06:14:38;;;;;;;6.00;5.45;;;;;;;19.34;100.00;101954.06;5031639;28;20039;-51
2023/06/15 06:17:04;;;;;;;6.22;4.85;;;;;;;19.49;100.00;101950.63;5032568;28;20280;-50
2023/06/15 06:19:30;;;;;;;8.75;5.25;;;;;;;19.22;100.00;101893.28;5031017;28;20129;-53
2023/06/15 06:21:55;;;;;;;5.78;5.25;;;;;;;19.35;100.00;101900.56;5035164;28;20033;-50
2023/06/15 06:24:20;;;;;;;9.02;5.97;;;;;;;19.80;100.00;101956.09;5043959;28;20134;-48
2023/06/15 06:26:46;;;;;;;7.30;5.63;;;;;;;19.59;100.00;101906.47;5011284;28;20044;-53
2023/06/15 06:29:11;;;;;;;7.95;4.60;;;;;;;20.03;100.00;101961.06;5021492;28;20099;-51
2023/06/15 06:31:36;;;;;;;5.68;5.13;;;;;;;19.99;100.00;101939.94;5031410;28;20358;-48
2023/06/15 06:34:02;;;;;;;6.40;4.72;;;;;;;20.27;100.00;101964.25;5030725;28;20048;-50
2023/06/15 06:36:27;;;;;;;7.00;5.53;;;;;;;20.08;100.00;101894.00;5032164;28;20041;-50
2023/06/15 06:38:53;;;;;;;6.75;5.22;;;;;;;20.59;100.00;101965.13;5031585;28;20369;-49
2023/06/15 06:41:18;;;;;;;6.90;5.00;;;;;;;20.53;100.00;101978.84;5031065;28;20244;-50
2023/06/15 06:43:43;;;;;;;7.95;4.75;;;;;;;20.65;100.00;101968.34;5017017;28;20060;-51
2023/06/15 06:46:09;;;;;;;5.25;4.68;;;;;;;20.42;100.00;101914.41;5031327;28;20038;-51
2023/06/15 06:48:35;;;;;;;9.32;4.47;;;;;;;20.55;100.00;101904.72;5031137;28;20091;-51
2023/06/15 06:51:00;;;;;;;7.72;4.70;;;;;;;20.68;100.00;101917.31;5031964;28;20076;-52
2023/06/15 06:53:25;;;;;;;6.63;4.25;;;;;;;20.64;100.00;101910.41;5031953;28;20107;-53
2023/06/15 06:55:51;;;;;;;7.70;5.28;;;;;;;21.12;100.00;101986.19;5031093;28;20045;-50
2023/06/15 06:58:16;;;;;;;6.50;4.20;;;;;;;20.87;100.00;101917.09;5031783;28;20034;-50
2023/06/15 07:00:42;;;;;;;6.10;4.70;;;;;;;21.16;100.00;101972.50;5030115;28;20423;-52
2023/06/15 07:03:07;;;;;;;5.38;4.60;;;;;;;21.36;100.00;101983.88;5029876;28;20374;-50
2023/06/15 07:05:33;;;;;;;5.63;3.67;;;;;;;21.52;100.00;101995.41;5031879;28;20041;-52
2023/06/15 07:07:58;;;;;;;8.25;4.40;;;;;;;21.75;100.00;101993.06;5030667;28;20033;-51
2023/06/15 07:10:24;;;;;;;4.93;4.03;;;;;;;21.62;100.00;101927.78;5030727;28;20046;-51
2023/06/15 07:12:50;;;;;;;7.07;4.55;;;;;;;22.03;100.00;102000.31;5031964;28;20079;-49
2023/06/15 07:15:15;;;;;;;10.07;4.60;;;;;;;22.17;100.00;102015.56;5030731;28;20095;-51
2023/06/15 07:17:41;;;;;;;8.20;5.00;;;;;;;22.14;100.00;102003.19;5031657;28;20045;-51
2023/06/15 07:20:07;;;;;;;5.65;4.18;;;;;;;22.21;100.00;102014.41;5017457;28;20036;-49
2023/06/15 07:22:32;;;;;;;7.43;4.57;;;;;;;22.02;100.00;101946.78;5011764;28;20167;-51
2023/06/15 07:24:57;;;;;;;9.15;4.78;;;;;;;22.55;100.00;102008.63;5023323;28;20645;-50
2023/06/15 07:27:23;;;;;;;10.27;5.07;;;;;;;22.37;100.00;101970.44;5036628;28;20045;-52
2023/06/15 07:29:48;;;;;;;5.85;4.63;;;;;;;22.56;100.00;102012.19;5055449;28;20040;-51
2023/06/15 07:32:14;;;;;;;7.30;4.75;;;;;;;22.44;100.00;101950.28;5055628;28;20048;-50
2023/06/15 07:34:39;;;;;;;15.40;4.53;;;;;;;22.69;100.00;101946.91;5055575;28;20062;-53
2023/06/15 07:37:05;;;;;;;5.95;3.35;;;;;;;23.23;100.00;102003.31;5031030;28;20045;-49
2023/06/15 07:39:31;;;;;;;8.65;3.72;;;;;;;23.18;100.00;101947.19;5023703;28;20030;-52
2023/06/15 07:41:56;;;;;;;6.25;3.88;;;;;;;23.69;100.00;101956.22;5026023;28;20542;-50
2023/06/15 07:44:21;;;;;;;7.15;3.90;;;;;;;24.02;100.00;101961.91;5055179;28;20035;-49
2023/06/15 07:46:47;;;;;;;8.30;4.82;;;;;;;24.86;100.00;102013.28;5055099;28;20490;-51
2023/06/15 07:49:12;;;;;;;7.50;3.83;;;;;;;25.22;100.00;102023.13;5045101;28;20128;-53
2023/06/15 07:51:37;;;;;;;5.88;4.40;;;;;;;25.40;100.00;101964.28;5035126;28;20049;-51
2023/06/15 07:54:03;;;;;;;6.28;4.22;;;;;;;25.99;100.00;102017.19;5042507;28;20474;-50
2023/06/15 07:56:28;;;;;;;5.50;3.95;;;;;;;26.37;100.00;102027.66;5015335;28;20109;-52
2023/06/15 07:58:54;;;;;;;8.05;4.00;;;;;;;26.75;100.00;102035.38;5015142;28;20033;-52
2023/06/15 08:01:19;;;;;;;6.43;4.28;;;;;;;26.95;100.00;102026.53;5010287;28;20033;-53
2023/06/15 08:03:44;;;;;;;5.90;4.15;;;;;;;26.72;100.00;101977.06;5050372;28;20045;-51
2023/06/15 08:06:10;;;;;;;9.05;4.15;;;;;;;27.20;100.00;102012.69;5041816;28;20061;-51
2023/06/15 08:08:36;;;;;;;8.43;4.10;;;;;;;27.12;100.00;101965.66;5034692;28;20123;-54
2023/06/15 08:11:02;;;;;;;6.25;4.10;;;;;;;27.44;100.00;102004.38;5029722;28;20065;-50
2023/06/15 08:13:27;;;;;;;9.85;4.30;;;;;;;27.54;100.00;102028.81;5032249;28;20392;-52
2023/06/15 08:15:53;;;;;;;5.93;4.20;;;;;;;27.25;100.00;102020.41;5018931;28;20030;-48
2023/06/15 08:18:18;;;;;;;8.68;4.05;;;;;;;26.59;100.00;101987.13;5015052;28;20064;-51
2023/06/15 08:20:43;;;;;;;9.18;3.50;;;;;;;26.78;100.00;101965.75;4997074;28;20042;-55
2023/06/15 08:23:09;;;;;;;4.03;3.40;;;;;;;27.58;100.00;101977.03;4999937;28;20029;-54
2023/06/15 08:25:34;;;;;;;5.97;3.58;;;;;;;28.21;100.00;102016.59;5015521;28;20060;-49
2023/06/15 08:28:01;;;;;;;4.72;3.20;;;;;;;28.13;100.00;102034.50;5004393;28;20062;-54
2023/06/15 08:30:27;;;;;;;3.25;2.92;;;;;;;28.64;100.00;102038.03;5009132;28;20041;-54
2023/06/15 08:32:52;;;;;;;7.78;3.33;;;;;;;28.47;100.00;102017.84;5012835;28;20392;-50
2023/06/15 08:35:17;;;;;;;7.07;3.70;;;;;;;28.71;100.00;102031.09;5013480;28;20034;-50
2023/06/15 08:37:43;;;;;;;7.03;4.05;;;;;;;28.73;100.00;101979.44;5013815;28;20040;-49
2023/06/15 08:40:09;;;;;;;5.30;3.72;;;;;;;28.88;100.00;102026.84;5014735;28;20044;-48
2023/06/15 08:42:34;;;;;;;13.60;3.50;;;;;;;28.73;100.00;102029.09;5014550;28;20122;-53
2023/06/15 08:45:03;;;;;;;5.68;3.50;;;;;;;28.52;100.00;102027.44;5013893;28;20390;-51
2023/06/15 08:47:31;;;;;;;10.55;3.22;;;;;;;28.48;100.00;101976.25;5009031;28;20057;-55
2023/06/15 08:49:56;;;;;;;9.00;3.55;;;;;;;28.71;100.00;101986.88;5010874;28;20492;-53
2023/06/15 08:52:23;;;;;;;7.10;3.22;;;;;;;29.20;100.00;102029.31;5013288;28;20061;-54
2023/06/15 08:54:52;;;;;;;4.97;3.28;;;;;;;28.54;100.00;102001.91;5014255;28;20038;-53
2023/06/15 08:57:17;;;;;;;8.02;3.33;;;;;;;28.13;100.00;101991.19;5014143;28;20057;-57
2023/06/15 08:59:43;;;;;;;3.47;3.13;;;;;;;28.49;100.00;102039.38;4996958;28;20100;-51
2023/06/15 09:02:13;;;;;;;5.03;3.05;;;;;;;28.29;100.00;101959.03;4992456;28;20038;-54
2023/06/15 09:04:38;;;;;;;6.25;3.50;;;;;;;29.10;100.00;102033.88;4995037;28;20034;-56
2023/06/15 09:07:03;;;;;;;6.85;3.25;;;;;;;29.32;100.00;102041.78;5013781;28;20080;-56
2023/06/15 09:09:29;;;;;;;6.97;3.65;;;;;;;29.27;100.00;102036.78;5013845;28;20034;-57
2023/06/15 09:11:54;;;;;;;4.40;3.20;;;;;;;29.55;100.00;102025.09;5013864;28;20041;-54
2023/06/15 09:14:20;;;;;;;5.22;3.00;;;;;;;29.94;100.00;102031.34;5013698;28;20473;-52
2023/06/15 09:16:48;;;;;;;6.68;3.00;;;;;;;30.32;100.00;102016.78;4996345;28;20084;-49
2023/06/15 09:19:16;;;;;;;4.60;2.92;;;;;;;30.45;100.00;101992.88;5013772;28;20160;-50
2023/06/15 09:21:52;;;;;;;11.95;3.38;;;;;;;30.10;90.56;102037.00;5011134;28;20049;-54
2023/06/15 09:24:23;;;;;;;7.15;2.95;;;;;;;29.35;92.72;102027.94;5003495;28;20118;-49
2023/06/15 09:26:48;;;;;;;3.90;3.13;;;;;;;29.54;93.54;102023.34;5013536;28;20034;-50
2023/06/15 09:29:14;;;;;;;4.95;3.40;;;;;;;29.58;94.59;102029.34;5024248;28;20092;-51
2023/06/15 09:31:40;;;;;;;7.72;3.35;;;;;;;29.81;97.96;102027.22;5013378;28;20041;-51
2023/06/15 09:34:13;;;;;;;4.75;3.05;;;;;;;29.93;94.73;102028.75;5022805;28;20037;-49
2023/06/15 09:36:49;;;;;;;8.02;3.40;;;;;;;30.19;94.13;102020.81;5016921;28;20037;-51
2023/06/15 09:39:16;;;;;;;3.65;2.97;;;;;;;30.11;91.48;102040.59;4995325;28;20111;-51
2023/06/15 09:41:56;;;;;;;6.57;3.38;;;;;;;29.98;89.91;102030.03;5013326;28;20041;-54
2023/06/15 09:44:22;;;;;;;;;;;;;;;30.18;89.87;102033.56;5012795;28;20029;-56
2023/06/15 09:46:56;;;;;;;3.88;3.53;;;;;;;30.19;95.17;101993.66;5012277;28;19929;-54
2023/06/15 09:49:25;;;;;;;4.03;3.30;;;;;;;30.28;92.25;101977.34;4999147;28;20770;-52
2023/06/15 09:51:51;;;;;;;4.95;2.70;;;;;;;30.14;92.49;101983.25;4992761;28;20042;-52
2023/06/15 09:54:22;;;;;;;6.93;3.42;;;;;;;30.45;94.78;101967.56;5022492;28;20538;-52
2023/06/15 09:56:50;;;;;;;5.35;3.08;;;;;;;31.03;94.96;101965.34;5004272;28;20090;-55
2023/06/15 09:59:15;;;;;;;8.98;3.50;;;;;;;31.80;87.74;102017.25;4998000;28;20030;-50
2023/06/15 10:01:42;;;;;;;4.30;3.03;;;;;;;31.53;87.55;101966.50;5003463;28;20037;-49
2023/06/15 10:04:08;;;;;;;6.07;3.50;;;;;;;32.05;88.49;102010.13;5011661;28;20084;-52
2023/06/15 10:06:34;;;;;;;7.30;3.25;;;;;;;31.83;93.91;102022.38;5011184;28;20045;-51
2023/06/15 10:09:00;;;;;;;5.60;3.25;;;;;;;31.47;90.67;102026.97;5011574;28;20069;-51
2023/06/15 10:11:27;;;;;;;5.68;3.50;;;;;;;31.87;84.75;102031.09;4999724;28;20065;-52
2023/06/15 10:14:06;;;;;;;7.07;3.83;;;;;;;31.94;88.88;102022.09;5012498;28;20034;-49
2023/06/15 10:16:32;;;;;;;3.50;2.97;;;;;;;31.34;79.46;101960.38;4995715;28;20278;-55
2023/06/15 10:19:02;;;;;;;4.88;3.20;;;;;;;30.91;86.57;101967.41;4994615;28;20034;-51
2023/06/15 10:21:29;;;;;;;4.78;3.28;;;;;;;31.44;95.69;102027.28;5008877;28;20074;-49
2023/06/15 10:23:56;;;;;;;6.38;3.40;;;;;;;31.76;89.18;102026.72;5001829;28;20378;-53
2023/06/15 10:26:21;;;;;;;11.32;3.75;;;;;;;31.72;88.71;101985.38;5012151;28;20029;-57
2023/06/15 10:28:50;;;;;;;8.35;3.67;;;;;;;30.62;89.42;101992.06;5026609;28;20088;-47
2023/06/15 10:31:42;;;;;;;9.85;3.45;;;;;;;29.72;91.30;102031.63;5014928;28;20065;-53
2023/06/15 10:34:19;;;;;;;4.28;3.88;;;;;;;29.03;100.00;102020.88;5014289;28;20029;-48
2023/06/15 10:36:50;;;;;;;6.18;3.42;;;;;;;28.39;100.00;101987.03;5023502;28;20548;-49
2023/06/15 10:39:32;;;;;;;5.90;3.67;;;;;;;27.12;100.00;101987.28;5028407;28;20020;-48
2023/06/15 10:41:58;;;;;;;5.35;3.63;;;;;;;27.17;100.00;102039.13;5030854;28;20029;-49
2023/06/15 10:44:32;;;;;;;5.18;3.53;;;;;;;26.96;100.00;102027.38;5032060;28;20041;-56
2023/06/15 10:47:11;;;;;;;3.67;3.35;;;;;;;26.17;100.00;101972.59;5031989;28;20477;-56
2023/06/15 10:49:47;;;;;;;11.25;3.22;;;;;;;26.39;100.00;102033.78;5030657;28;20060;-53
2023/06/15 10:52:13;;;;;;;6.47;3.25;;;;;;;26.72;100.00;102041.88;5036130;28;20072;-49
2023/06/15 10:54:38;;;;;;;5.18;3.60;;;;;;;26.71;100.00;102029.34;5029655;28;20076;-55
2023/06/15 10:57:06;;;;;;;6.22;3.33;;;;;;;26.69;100.00;102039.44;5032208;28;20041;-49
2023/06/15 10:59:54;;;;;;;4.45;3.13;;;;;;;26.62;100.00;101973.38;5047038;28;20087;-53
2023/06/15 11:02:29;;;;;;;8.52;4.38;;;;;;;26.95;100.00;102040.03;5030593;28;20026;-53
2023/06/15 11:05:04;;;;;;;6.05;3.50;;;;;;;27.10;100.00;102024.41;5030589;28;20056;-53
2023/06/15 11:07:33;;;;;;;5.90;3.20;;;;;;;26.55;100.00;101966.78;5031369;28;20033;-55
2023/06/15 11:10:04;;;;;;;5.05;3.75;;;;;;;26.76;100.00;102027.16;5019545;28;20129;-53
2023/06/15 11:12:40;;;;;;;4.75;2.90;;;;;;;26.69;100.00;102025.94;4993394;28;20054;-54
2023/06/15 11:15:08;;;;;;;8.73;3.33;;;;;;;26.95;100.00;102020.25;5020375;28;20029;-52